createdAt,value
2022-08-24T00:02:07.516Z,8.57
2022-08-24T00:04:40.761Z,9.13
2022-08-24T00:07:21.405Z,8.10
2022-08-24T00:09:57.075Z,8.80
2022-08-24T00:12:26.244Z,9.10
2022-08-24T00:14:56.537Z,8.20
2022-08-24T00:17:25.515Z,8.77
2022-08-24T00:19:55.293Z,9.82
2022-08-24T00:22:23.809Z,8.30
2022-08-24T00:24:52.504Z,8.40
2022-08-24T00:27:21.159Z,8.45
2022-08-24T00:29:50.507Z,7.90
2022-08-24T00:32:20.438Z,9.35
2022-08-24T00:34:59.338Z,9.73
2022-08-24T00:37:29.074Z,8.27
2022-08-24T00:39:59.755Z,8.05
2022-08-24T00:44:56.589Z,8.68
2022-08-24T00:47:31.632Z,8.02
2022-08-24T00:50:03.750Z,10.88
2022-08-24T00:52:37.036Z,10.43
2022-08-24T00:55:11.149Z,7.25
2022-08-24T00:57:42.861Z,7.28
2022-08-24T01:00:17.994Z,7.28
2022-08-24T01:02:52.209Z,9.75
2022-08-24T01:05:21.308Z,7.97
2022-08-24T01:07:50.666Z,7.95
2022-08-24T01:10:25.215Z,8.27
2022-08-24T01:13:00.319Z,8.00
2022-08-24T01:15:31.019Z,11.93
2022-08-24T01:18:19.289Z,15.23
2022-08-24T01:20:54.897Z,13.68
2022-08-24T01:23:37.765Z,8.00
2022-08-24T01:26:06.898Z,7.15
2022-08-24T01:28:37.098Z,7.30
2022-08-24T01:31:06.204Z,8.10
2022-08-24T01:33:36.037Z,7.60
2022-08-24T01:36:19.002Z,7.70
2022-08-24T01:38:50.247Z,7.50
2022-08-24T01:41:19.131Z,7.63
2022-08-24T01:43:47.992Z,7.88
2022-08-24T01:46:17.161Z,7.78
2022-08-24T01:48:45.636Z,9.77
2022-08-24T01:51:14.375Z,7.93
2022-08-24T01:53:42.799Z,7.13
2022-08-24T01:56:12.737Z,7.22
2022-08-24T02:01:13.701Z,7.00
2022-08-24T02:03:42.270Z,6.95
2022-08-24T02:06:12.551Z,6.88
2022-08-24T02:08:42.085Z,8.98
2022-08-24T02:11:13.042Z,6.47
2022-08-24T02:13:43.590Z,6.55
2022-08-24T02:16:13.533Z,7.55
2022-08-24T02:18:42.252Z,7.25
2022-08-24T02:21:12.134Z,7.28
2022-08-24T02:26:13.642Z,7.45
2022-08-24T02:28:44.561Z,7.18
2022-08-24T02:31:15.485Z,7.18
2022-08-24T02:33:46.676Z,7.95
2022-08-24T02:36:26.187Z,8.52
2022-08-24T02:38:59.990Z,7.80
2022-08-24T02:41:29.894Z,7.45
2022-08-24T02:43:59.094Z,7.55
2022-08-24T02:46:29.734Z,9.00
2022-08-24T02:49:11.277Z,7.40
2022-08-24T02:51:46.878Z,8.07
2022-08-24T02:54:20.181Z,7.88
2022-08-24T02:56:52.984Z,9.93
2022-08-24T03:01:52.588Z,7.78
2022-08-24T03:04:22.961Z,8.30
2022-08-24T03:06:51.451Z,7.95
2022-08-24T03:09:20.499Z,8.07
2022-08-24T03:11:54.049Z,8.10
2022-08-24T03:14:23.264Z,8.20
2022-08-24T03:16:51.888Z,7.60
2022-08-24T03:19:20.560Z,7.75
2022-08-24T03:21:49.349Z,8.60
2022-08-24T03:24:18.029Z,7.70
2022-08-24T03:26:47.141Z,7.75
2022-08-24T03:29:17.793Z,7.40
2022-08-24T03:31:47.157Z,7.25
2022-08-24T03:34:16.571Z,7.10
2022-08-24T03:36:47.548Z,8.52
2022-08-24T03:39:18.032Z,7.53
2022-08-24T03:41:49.170Z,8.57
2022-08-24T03:44:23.088Z,8.25
2022-08-24T03:46:54.492Z,8.15
2022-08-24T03:49:25.129Z,7.55
2022-08-24T03:51:54.344Z,82.70
2022-08-24T03:54:25.316Z,62.85
2022-08-24T03:56:54.129Z,70.25
2022-08-24T03:59:24.076Z,26.17
2022-08-24T04:01:56.422Z,15.95
2022-08-24T04:04:27.235Z,9.57
2022-08-24T04:06:57.868Z,9.48
2022-08-24T04:09:29.502Z,8.68
2022-08-24T04:11:58.415Z,8.63
2022-08-24T04:14:29.680Z,8.70
2022-08-24T04:17:04.803Z,8.80
2022-08-24T04:19:57.483Z,8.35
2022-08-24T04:22:35.627Z,8.43
2022-08-24T04:25:09.589Z,9.15
2022-08-24T04:27:41.543Z,9.73
2022-08-24T04:30:14.475Z,8.00
2022-08-24T04:33:14.088Z,9.23
2022-08-24T04:35:47.620Z,9.18
2022-08-24T04:38:18.047Z,8.48
2022-08-24T04:41:00.433Z,8.45
2022-08-24T04:43:29.616Z,8.32
2022-08-24T04:48:29.909Z,12.63
2022-08-24T04:51:02.868Z,8.38
2022-08-24T04:53:31.918Z,8.55
2022-08-24T04:56:01.835Z,10.25
2022-08-24T04:58:33.968Z,10.75
2022-08-24T05:01:08.717Z,10.90
2022-08-24T05:03:38.185Z,11.18
2022-08-24T05:06:07.236Z,9.35
2022-08-24T05:08:35.996Z,9.60
2022-08-24T05:11:06.944Z,9.23
2022-08-24T05:13:35.766Z,8.68
2022-08-24T05:16:09.948Z,9.82
2022-08-24T05:18:38.712Z,9.43
2022-08-24T05:21:09.722Z,9.10
2022-08-24T05:23:40.233Z,8.25
2022-08-24T05:26:17.811Z,8.40
2022-08-24T05:28:47.749Z,8.68
2022-08-24T05:31:20.803Z,13.25
2022-08-24T05:33:50.519Z,12.75
2022-08-24T05:36:23.577Z,8.23
2022-08-24T05:38:55.112Z,8.10
2022-08-24T05:41:25.025Z,8.18
2022-08-24T05:44:01.721Z,8.05
2022-08-24T05:46:38.263Z,11.43
2022-08-24T05:49:08.173Z,15.73
2022-08-24T05:51:37.716Z,11.13
2022-08-24T05:54:09.896Z,12.85
2022-08-24T05:56:50.833Z,10.15
2022-08-24T05:59:19.791Z,12.25
2022-08-24T06:01:51.147Z,8.07
2022-08-24T06:04:20.033Z,7.95
2022-08-24T06:06:49.992Z,9.07
2022-08-24T06:09:19.494Z,8.40
2022-08-24T06:11:49.305Z,9.00
2022-08-24T06:14:22.859Z,8.98
2022-08-24T06:17:00.231Z,10.23
2022-08-24T06:19:29.505Z,13.60
2022-08-24T06:21:58.985Z,11.10
2022-08-24T06:24:48.733Z,9.93
2022-08-24T06:27:22.373Z,10.95
2022-08-24T06:29:56.583Z,9.57
2022-08-24T06:32:46.823Z,9.85
2022-08-24T06:35:27.135Z,10.50
2022-08-24T06:37:57.426Z,9.85
2022-08-24T06:40:26.603Z,9.25
2022-08-24T06:42:55.932Z,11.63
2022-08-24T06:45:36.552Z,14.02
2022-08-24T06:48:06.515Z,11.80
2022-08-24T06:53:04.523Z,10.05
2022-08-24T06:55:34.790Z,10.52
2022-08-24T06:58:03.647Z,8.90
2022-08-24T07:00:32.256Z,9.57
2022-08-24T07:03:01.968Z,10.90
2022-08-24T07:05:33.014Z,9.02
2022-08-24T07:08:42.181Z,9.57
2022-08-24T07:11:14.416Z,9.35
2022-08-24T07:13:43.796Z,9.68
2022-08-24T07:16:13.244Z,9.60
2022-08-24T07:18:49.462Z,10.48
2022-08-24T07:21:23.064Z,9.52
2022-08-24T07:23:56.770Z,9.23
2022-08-24T07:26:28.321Z,8.73
2022-08-24T07:29:05.438Z,11.90
2022-08-24T07:31:44.733Z,8.68
2022-08-24T07:34:34.654Z,8.40
2022-08-24T07:37:05.621Z,8.20
2022-08-24T07:39:36.029Z,7.65
2022-08-24T07:42:14.781Z,10.30
2022-08-24T07:44:47.602Z,9.80
2022-08-24T07:50:11.693Z,8.02
2022-08-24T07:52:44.847Z,9.20
2022-08-24T07:55:15.792Z,7.00
2022-08-24T08:00:19.789Z,7.38
2022-08-24T08:02:54.103Z,7.97
2022-08-24T08:05:25.037Z,9.00
2022-08-24T08:07:56.716Z,7.03
2022-08-24T08:10:25.985Z,7.43
2022-08-24T08:12:55.414Z,7.25
2022-08-24T08:15:24.130Z,7.30
2022-08-24T08:18:01.060Z,9.32
2022-08-24T08:20:30.126Z,8.80
2022-08-24T08:23:18.276Z,7.43
2022-08-24T08:26:03.141Z,7.75
2022-08-24T08:28:45.972Z,7.97
2022-08-24T08:31:15.346Z,7.03
2022-08-24T08:33:43.912Z,7.70
2022-08-24T08:36:16.290Z,7.25
2022-08-24T08:38:52.301Z,6.82
2022-08-24T08:41:50.472Z,9.52
2022-08-24T08:44:39.897Z,7.40
2022-08-24T08:47:38.745Z,7.43
2022-08-24T08:50:14.904Z,7.45
2022-08-24T08:53:22.023Z,7.47
2022-08-24T08:56:03.797Z,8.35
2022-08-24T08:58:57.413Z,8.40
2022-08-24T09:01:46.488Z,10.82
2022-08-24T09:04:55.396Z,7.20
2022-08-24T09:07:40.322Z,7.70
2022-08-24T09:10:45.813Z,7.82
2022-08-24T09:13:32.271Z,7.88
2022-08-24T09:16:18.811Z,7.47
2022-08-24T09:19:26.425Z,7.03
2022-08-24T09:22:13.529Z,7.25
2022-08-24T09:25:06.134Z,7.15
2022-08-24T09:27:53.720Z,7.25
2022-08-24T09:30:26.258Z,7.85
2022-08-24T09:33:06.287Z,7.32
2022-08-24T09:35:45.988Z,7.53
2022-08-24T09:38:24.193Z,8.00
2022-08-24T09:41:13.170Z,7.07
2022-08-24T09:44:23.893Z,9.00
2022-08-24T09:47:23.491Z,7.35
2022-08-24T09:50:26.941Z,7.23
2022-08-24T09:53:28.320Z,9.35
2022-08-24T09:56:18.528Z,7.20
2022-08-24T09:59:01.672Z,6.82
2022-08-24T10:01:38.438Z,6.30
2022-08-24T10:04:23.717Z,6.97
2022-08-24T10:07:04.523Z,6.72
2022-08-24T10:09:47.487Z,6.70
2022-08-24T10:12:24.331Z,8.45
2022-08-24T10:15:00.551Z,6.78
2022-08-24T10:17:42.841Z,6.43
2022-08-24T10:20:24.545Z,6.97
2022-08-24T10:23:35.169Z,6.60
2022-08-24T10:26:20.999Z,6.43
2022-08-24T10:29:08.642Z,6.00
2022-08-24T10:31:48.618Z,6.43
2022-08-24T10:34:34.718Z,6.30
2022-08-24T10:37:21.121Z,6.25
2022-08-24T10:40:11.676Z,7.63
2022-08-24T10:43:43.456Z,11.23
2022-08-24T10:46:50.492Z,6.35
2022-08-24T10:50:04.087Z,8.13
2022-08-24T10:53:20.574Z,6.68
2022-08-24T10:56:01.289Z,6.18
2022-08-24T10:58:42.421Z,5.80
2022-08-24T11:01:34.020Z,6.03
2022-08-24T11:04:07.383Z,6.65
2022-08-24T11:06:38.799Z,6.55
2022-08-24T11:09:17.231Z,7.00
2022-08-24T11:11:50.549Z,6.82
2022-08-24T11:14:26.578Z,6.47
2022-08-24T11:16:57.878Z,7.28
2022-08-24T11:19:33.419Z,6.43
2022-08-24T11:22:07.533Z,6.57
2022-08-24T11:24:46.776Z,6.80
2022-08-24T11:27:26.222Z,6.95
2022-08-24T11:30:07.425Z,6.70
2022-08-24T11:32:42.019Z,6.28
2022-08-24T11:37:43.743Z,6.13
2022-08-24T11:40:15.705Z,6.25
2022-08-24T11:43:06.306Z,6.70
2022-08-24T11:45:42.009Z,10.20
2022-08-24T11:48:27.250Z,6.95
2022-08-24T11:51:03.350Z,6.55
2022-08-24T11:56:21.466Z,7.00
2022-08-24T11:59:06.344Z,6.85
2022-08-24T12:01:44.697Z,7.25
2022-08-24T12:04:35.336Z,7.07
2022-08-24T12:07:13.121Z,6.57
2022-08-24T12:09:56.990Z,7.00
2022-08-24T12:12:36.797Z,6.90
2022-08-24T12:15:12.782Z,7.10
2022-08-24T12:17:47.559Z,7.07
2022-08-24T12:20:31.850Z,7.07
2022-08-24T12:23:04.002Z,7.07
2022-08-24T12:25:53.939Z,8.75
2022-08-24T12:28:28.932Z,6.68
2022-08-24T12:31:04.596Z,6.30
2022-08-24T12:33:39.138Z,6.72
2022-08-24T12:36:19.319Z,7.05
2022-08-24T12:38:56.260Z,6.40
2022-08-24T12:41:32.519Z,6.85
2022-08-24T12:44:16.549Z,6.93
2022-08-24T12:46:53.202Z,6.72
2022-08-24T12:49:29.806Z,6.93
2022-08-24T12:52:21.570Z,7.03
2022-08-24T12:55:16.499Z,7.18
2022-08-24T12:57:59.763Z,7.50
2022-08-24T13:00:36.326Z,6.88
2022-08-24T13:03:07.355Z,6.50
2022-08-24T13:05:43.023Z,9.80
2022-08-24T13:08:15.557Z,6.45
2022-08-24T13:10:53.929Z,5.65
2022-08-24T13:16:07.172Z,6.07
2022-08-24T13:19:11.256Z,6.50
2022-08-24T13:21:44.358Z,6.32
2022-08-24T13:24:46.749Z,6.43
2022-08-24T13:28:01.424Z,7.95
2022-08-24T13:30:39.804Z,6.78
2022-08-24T13:33:13.166Z,6.20
2022-08-24T13:36:29.976Z,6.65
2022-08-24T13:39:31.459Z,6.03
2022-08-24T13:42:10.815Z,6.05
2022-08-24T13:45:09.597Z,6.53
2022-08-24T13:47:52.389Z,6.50
2022-08-24T13:50:37.908Z,8.52
2022-08-24T13:53:31.369Z,6.57
2022-08-24T13:56:23.769Z,6.45
2022-08-24T13:59:09.739Z,6.65
2022-08-24T14:01:59.901Z,8.55
2022-08-24T14:04:58.124Z,6.70
2022-08-24T14:07:31.556Z,6.55
2022-08-24T14:10:11.433Z,6.70
2022-08-24T14:12:58.950Z,6.70
2022-08-24T14:15:36.210Z,6.90
2022-08-24T14:18:10.624Z,6.60
2022-08-24T14:21:06.699Z,6.60
2022-08-24T14:23:50.087Z,6.78
2022-08-24T14:29:34.976Z,6.15
2022-08-24T14:35:17.963Z,6.35
2022-08-24T14:37:58.539Z,10.68
2022-08-24T14:40:35.186Z,6.32
2022-08-24T14:45:57.291Z,13.45
2022-08-24T14:48:36.003Z,9.90
2022-08-24T14:51:14.586Z,12.48
2022-08-24T14:54:01.938Z,6.40
2022-08-24T14:56:51.555Z,7.15
2022-08-24T15:02:44.512Z,8.48
2022-08-24T15:05:22.813Z,7.05
2022-08-24T15:07:59.150Z,6.40
2022-08-24T15:10:35.981Z,6.93
2022-08-24T15:15:57.731Z,11.23
2022-08-24T15:18:36.986Z,8.00
2022-08-24T15:21:19.249Z,8.45
2022-08-24T15:24:08.014Z,22.02
2022-08-24T15:26:58.052Z,7.55
2022-08-24T15:29:31.089Z,18.58
2022-08-24T15:32:05.460Z,7.35
2022-08-24T15:34:43.632Z,10.25
2022-08-24T15:37:15.852Z,6.32
2022-08-24T15:39:45.129Z,5.80
2022-08-24T15:42:16.573Z,5.53
2022-08-24T15:44:50.087Z,6.00
2022-08-24T15:47:27.711Z,5.65
2022-08-24T15:49:59.833Z,5.80
2022-08-24T15:52:43.370Z,6.00
2022-08-24T15:55:33.029Z,5.40
2022-08-24T15:58:25.003Z,5.60
2022-08-24T16:01:12.662Z,5.25
2022-08-24T16:03:50.332Z,5.70
2022-08-24T16:06:24.267Z,6.25
2022-08-24T16:09:01.796Z,6.50
2022-08-24T16:11:35.007Z,5.93
2022-08-24T16:14:05.285Z,5.60
2022-08-24T16:16:40.467Z,5.75
2022-08-24T16:19:24.426Z,6.70
2022-08-24T16:21:58.585Z,7.00
2022-08-24T16:24:37.137Z,6.15
2022-08-24T16:27:09.786Z,5.93
2022-08-24T16:29:50.301Z,6.13
2022-08-24T16:32:32.263Z,6.30
2022-08-24T16:35:20.813Z,6.53
2022-08-24T16:37:51.020Z,6.30
2022-08-24T16:40:20.798Z,6.40
2022-08-24T16:42:50.550Z,6.30
2022-08-24T16:45:24.755Z,8.20
2022-08-24T16:50:40.042Z,8.50
2022-08-24T16:53:10.634Z,6.38
2022-08-24T16:55:41.034Z,6.30
2022-08-24T16:58:10.676Z,6.80
2022-08-24T17:00:41.268Z,6.40
2022-08-24T17:03:14.342Z,6.70
2022-08-24T17:05:45.933Z,6.65
2022-08-24T17:08:16.224Z,15.00
2022-08-24T17:10:46.574Z,10.35
2022-08-24T17:13:33.106Z,8.82
2022-08-24T17:16:07.118Z,12.02
2022-08-24T17:18:36.522Z,7.00
2022-08-24T17:21:09.117Z,6.40
2022-08-24T17:23:39.089Z,6.00
2022-08-24T17:26:20.264Z,8.48
2022-08-24T17:28:54.503Z,9.20
2022-08-24T17:31:25.246Z,12.05
2022-08-24T17:33:54.580Z,6.40
2022-08-24T17:36:25.661Z,6.35
2022-08-24T17:39:00.280Z,6.15
2022-08-24T17:41:29.448Z,6.40
2022-08-24T17:43:58.473Z,6.13
2022-08-24T17:46:27.225Z,6.28
2022-08-24T17:48:58.207Z,5.85
2022-08-24T17:51:28.469Z,6.00
2022-08-24T17:53:57.329Z,6.15
2022-08-24T17:56:27.440Z,5.15
2022-08-24T18:01:58.899Z,5.85
2022-08-24T18:04:30.018Z,5.85
2022-08-24T18:07:03.267Z,5.65
2022-08-24T18:09:37.217Z,5.53
2022-08-24T18:12:08.133Z,5.28
2022-08-24T18:14:38.019Z,6.07
2022-08-24T18:17:10.402Z,6.13
2022-08-24T18:19:40.748Z,5.80
2022-08-24T18:22:10.997Z,5.75
2022-08-24T18:24:40.997Z,5.70
2022-08-24T18:27:12.326Z,6.35
2022-08-24T18:29:45.414Z,7.63
2022-08-24T18:32:19.661Z,6.47
2022-08-24T18:37:22.867Z,10.40
2022-08-24T18:39:52.355Z,23.27
2022-08-24T18:42:21.233Z,20.08
2022-08-24T18:44:49.877Z,9.88
2022-08-24T18:47:18.816Z,7.35
2022-08-24T18:49:47.321Z,7.28
2022-08-24T18:52:17.563Z,11.95
2022-08-24T18:54:50.057Z,7.43
2022-08-24T18:57:19.228Z,6.25
2022-08-24T18:59:48.006Z,6.60
2022-08-24T19:02:34.534Z,6.85
2022-08-24T19:05:06.560Z,9.05
2022-08-24T19:07:37.023Z,7.28
2022-08-24T19:10:10.285Z,7.03
2022-08-24T19:12:42.468Z,6.90
2022-08-24T19:15:29.356Z,6.63
2022-08-24T19:18:06.235Z,5.85
2022-08-24T19:20:35.398Z,6.50
2022-08-24T19:23:09.254Z,6.07
2022-08-24T19:25:41.798Z,6.43
2022-08-24T19:28:11.081Z,6.18
2022-08-24T19:30:40.945Z,5.72
2022-08-24T19:33:14.076Z,6.10
2022-08-24T19:35:43.718Z,5.60
2022-08-24T19:38:12.174Z,8.75
2022-08-24T19:40:47.407Z,9.25
2022-08-24T19:43:17.130Z,7.65
2022-08-24T19:46:07.848Z,6.07
2022-08-24T19:48:39.904Z,6.45
2022-08-24T19:51:11.661Z,5.60
2022-08-24T19:53:43.203Z,6.00
2022-08-24T19:56:13.074Z,5.95
2022-08-24T19:58:46.722Z,9.55
2022-08-24T20:01:19.904Z,7.03
2022-08-24T20:03:49.200Z,6.10
2022-08-24T20:06:21.486Z,6.57
2022-08-24T20:08:51.054Z,6.20
2022-08-24T20:11:25.355Z,6.53
2022-08-24T20:13:54.957Z,6.40
2022-08-24T20:16:25.510Z,6.30
2022-08-24T20:18:54.415Z,6.22
2022-08-24T20:21:26.113Z,6.35
2022-08-24T20:23:57.392Z,6.38
2022-08-24T20:26:27.907Z,5.93
2022-08-24T20:28:59.134Z,5.70
2022-08-24T20:31:28.956Z,16.40
2022-08-24T20:33:57.578Z,17.63
2022-08-24T20:36:28.866Z,30.40
2022-08-24T20:38:59.240Z,26.05
2022-08-24T20:41:29.987Z,9.80
2022-08-24T20:43:58.869Z,6.97
2022-08-24T20:46:28.105Z,7.32
2022-08-24T20:48:57.520Z,6.95
2022-08-24T20:51:29.717Z,6.45
2022-08-24T20:53:58.011Z,6.75
2022-08-24T20:56:33.473Z,7.03
2022-08-24T20:59:02.871Z,8.43
2022-08-24T21:01:32.111Z,9.73
2022-08-24T21:04:05.106Z,6.50
2022-08-24T21:06:35.428Z,5.43
2022-08-24T21:09:05.524Z,6.03
2022-08-24T21:14:06.562Z,5.88
2022-08-24T21:19:04.992Z,6.47
2022-08-24T21:21:34.133Z,6.70
2022-08-24T21:24:05.340Z,6.50
2022-08-24T21:26:36.085Z,6.32
2022-08-24T21:29:06.898Z,6.38
2022-08-24T21:31:35.885Z,6.05
2022-08-24T21:34:22.094Z,7.22
2022-08-24T21:36:52.686Z,6.47
2022-08-24T21:39:23.237Z,7.13
2022-08-24T21:41:54.502Z,6.70
2022-08-24T21:44:23.668Z,6.63
2022-08-24T21:46:53.315Z,7.68
2022-08-24T21:49:21.997Z,6.28
2022-08-24T21:51:50.954Z,6.25
2022-08-24T21:54:19.284Z,6.50
2022-08-24T21:56:48.419Z,6.50
2022-08-24T21:59:18.084Z,6.70
2022-08-24T22:01:46.994Z,7.30
2022-08-24T22:04:15.476Z,7.18
2022-08-24T22:06:44.248Z,6.68
2022-08-24T22:09:12.607Z,7.03
2022-08-24T22:11:42.603Z,6.60
2022-08-24T22:14:11.193Z,6.80
2022-08-24T22:16:41.551Z,6.72
2022-08-24T22:21:45.894Z,6.82
2022-08-24T22:24:16.719Z,7.00
2022-08-24T22:26:45.309Z,7.32
2022-08-24T22:29:14.486Z,7.82
2022-08-24T22:31:45.222Z,6.95
2022-08-24T22:34:19.646Z,7.30
2022-08-24T22:36:49.993Z,7.00
2022-08-24T22:39:18.759Z,6.65
2022-08-24T22:41:47.237Z,8.45
2022-08-24T22:44:21.972Z,7.63
2022-08-24T22:46:54.137Z,7.95
2022-08-24T22:49:25.084Z,7.75
2022-08-24T22:51:53.587Z,8.90
2022-08-24T22:54:23.088Z,7.50
2022-08-24T22:56:53.404Z,7.60
2022-08-24T23:01:55.397Z,8.30
2022-08-24T23:04:26.435Z,7.53
2022-08-24T23:06:55.477Z,8.00
2022-08-24T23:09:24.557Z,8.32
2022-08-24T23:11:53.255Z,9.50
2022-08-24T23:14:23.076Z,8.60
2022-08-24T23:16:53.728Z,8.10
2022-08-24T23:22:11.637Z,8.27
2022-08-24T23:24:41.682Z,7.95
2022-08-24T23:27:12.090Z,7.72
2022-08-24T23:29:40.938Z,8.10
2022-08-24T23:32:10.771Z,9.23
2022-08-24T23:34:39.413Z,8.73
2022-08-24T23:37:08.733Z,7.40
2022-08-24T23:39:38.229Z,7.43
2022-08-24T23:42:07.233Z,8.10
2022-08-24T23:44:36.229Z,7.32
2022-08-24T23:47:05.381Z,7.18
2022-08-24T23:49:35.885Z,8.40
2022-08-24T23:52:05.642Z,7.85
2022-08-24T23:54:35.165Z,8.15
2022-08-24T23:57:08.586Z,9.85
2022-08-24T23:59:37.709Z,7.20
